Time;durP1;ratioP1;P1;durP2;ratioP2;P2;SDS_P1;SDS_P2;PMS_P1;PMS_P2;Temp;Humidity;BMP_temperature;BMP_pressure;BME280_temperature;BME280_humidity;BME280_pressure;Samples;Min_cycle;Max_cycle;Signal;HPM_P1;HPM_P2
2023/04/11 00:04:45;;;;;;;6.20;2.67;;;;;;;15.36;69.16;101444.28;12801203;22;98188;-81
2023/04/11 00:09:50;;;;;;;5.35;3.08;;;;;;;15.46;69.55;101437.66;12801068;22;99064;-81
2023/04/11 00:14:54;;;;;;;4.15;2.58;;;;;;;15.50;69.46;101441.06;12801873;22;98018;-81
2023/04/11 00:20:00;;;;;;;6.90;3.20;;;;;;;15.41;69.41;101436.13;12801499;22;99079;-81
2023/04/11 00:25:05;;;;;;;6.00;2.92;;;;;;;15.30;69.24;101423.28;12800825;22;99354;-81
2023/04/11 00:30:09;;;;;;;6.57;3.20;;;;;;;15.19;69.49;101419.31;12801657;22;98628;-80
2023/04/11 00:35:12;;;;;;;3.25;2.30;;;;;;;15.06;69.98;101431.34;12802085;22;99306;-81
2023/04/11 00:40:17;;;;;;;7.32;2.80;;;;;;;15.25;69.32;101430.53;12800610;22;99208;-81
2023/04/11 00:45:20;;;;;;;6.70;2.97;;;;;;;15.19;69.31;101425.50;12800925;22;99027;-81
2023/04/11 00:50:24;;;;;;;3.55;2.38;;;;;;;15.16;69.26;101433.59;12799807;22;99569;-81
2023/04/11 00:55:29;;;;;;;4.30;2.92;;;;;;;15.12;69.29;101437.28;12800710;22;98973;-80
2023/04/11 01:00:34;;;;;;;3.92;2.85;;;;;;;14.96;69.91;101432.59;12801087;22;99198;-81
2023/04/11 01:05:38;;;;;;;9.20;3.13;;;;;;;15.07;69.43;101430.41;12800699;22;98978;-81
2023/04/11 01:10:43;;;;;;;5.45;2.80;;;;;;;14.98;69.43;101425.47;12800801;22;99131;-81
2023/04/11 01:15:46;;;;;;;5.47;2.80;;;;;;;14.63;70.19;101419.75;12801074;22;99190;-81
2023/04/11 01:20:49;;;;;;;5.60;2.67;;;;;;;14.58;70.64;101418.19;12800464;22;99108;-81
2023/04/11 01:25:54;;;;;;;5.53;2.67;;;;;;;14.69;70.16;101413.34;12801664;22;98881;-81
2023/04/11 01:30:57;;;;;;;5.53;2.47;;;;;;;15.04;69.20;101402.25;12800486;22;98819;-81
2023/04/11 01:36:01;;;;;;;5.72;2.60;;;;;;;15.17;68.96;101378.75;12800432;22;98882;-81
2023/04/11 01:41:08;;;;;;;6.07;2.90;;;;;;;15.14;69.15;101362.97;12799384;22;99138;-81
2023/04/11 01:46:11;;;;;;;4.95;2.85;;;;;;;14.88;69.78;101341.94;12799904;22;98870;-81
2023/04/11 01:51:14;;;;;;;4.65;3.15;;;;;;;14.73;70.41;101324.88;12799809;22;98323;-81
2023/04/11 01:56:19;;;;;;;6.07;3.10;;;;;;;14.64;71.10;101331.38;12799874;22;99212;-81
2023/04/11 02:01:22;;;;;;;6.45;3.58;;;;;;;14.45;71.67;101332.19;12799975;22;98922;-82
2023/04/11 02:06:26;;;;;;;4.93;3.05;;;;;;;14.41;71.44;101323.47;12799937;22;98938;-81
2023/04/11 02:11:31;;;;;;;5.22;2.97;;;;;;;14.43;71.23;101332.25;12800423;22;99559;-80
2023/04/11 02:16:36;;;;;;;6.47;3.30;;;;;;;14.29;71.87;101333.66;12800366;22;99217;-80
2023/04/11 02:21:39;;;;;;;4.95;2.95;;;;;;;14.33;71.67;101330.00;12799419;22;98947;-80
2023/04/11 02:26:44;;;;;;;7.38;3.30;;;;;;;14.28;71.88;101324.00;12799754;22;98582;-81
2023/04/11 02:31:48;;;;;;;4.80;3.00;;;;;;;14.14;72.08;101332.44;12798348;22;99075;-81
2023/04/11 02:36:52;;;;;;;6.65;3.47;;;;;;;14.27;71.74;101322.25;12799261;22;97912;-81
2023/04/11 02:41:57;;;;;;;6.53;3.13;;;;;;;14.14;71.70;101321.84;12798825;22;99114;-81
2023/04/11 02:47:00;;;;;;;7.13;3.10;;;;;;;14.15;71.32;101314.78;12799074;22;99127;-81
2023/04/11 02:52:04;;;;;;;8.15;2.88;;;;;;;14.06;71.91;101309.81;12799397;22;98966;-81
2023/04/11 02:57:08;;;;;;;4.05;2.70;;;;;;;14.22;71.42;101316.28;12798713;22;99075;-81
2023/04/11 03:02:11;;;;;;;4.22;2.72;;;;;;;14.32;71.04;101309.72;12800071;22;98947;-81
2023/04/11 03:07:15;;;;;;;4.80;3.15;;;;;;;14.38;70.66;101314.78;12802714;22;99347;-81
2023/04/11 03:12:20;;;;;;;5.43;3.10;;;;;;;14.23;71.41;101318.03;12801902;22;99179;-81
2023/04/11 03:17:22;;;;;;;;;;;;;;;14.24;71.91;101314.44;12802724;22;99136;-82
2023/04/11 03:22:26;;;;;;;4.57;3.10;;;;;;;14.07;70.97;101314.22;12799992;22;97812;-81
2023/04/11 03:27:30;;;;;;;5.72;3.00;;;;;;;13.95;71.27;101309.34;12802291;22;99181;-81
2023/04/11 03:32:33;;;;;;;5.82;3.17;;;;;;;13.60;72.26;101300.91;12801497;22;98945;-81
2023/04/11 03:37:36;;;;;;;10.27;3.70;;;;;;;13.63;72.09;101295.50;12801747;22;98869;-81
2023/04/11 03:42:41;;;;;;;5.22;3.55;;;;;;;13.82;71.50;101285.09;12801203;22;98992;-81
2023/04/11 03:47:44;;;;;;;5.97;3.42;;;;;;;13.91;71.56;101273.31;12801428;22;99251;-81
2023/04/11 03:52:48;;;;;;;6.90;3.55;;;;;;;13.95;71.43;101274.94;12801614;22;98748;-81
2023/04/11 03:57:52;;;;;;;8.45;4.18;;;;;;;13.85;71.61;101274.41;12740384;22;98669;-81
2023/04/11 04:02:55;;;;;;;12.38;4.70;;;;;;;13.76;71.88;101266.84;12738683;22;98964;-81
2023/04/11 04:07:59;;;;;;;7.20;3.75;;;;;;;13.86;71.55;101264.69;12735846;22;99049;-81
2023/04/11 04:13:03;;;;;;;11.63;4.30;;;;;;;13.74;72.03;101260.72;12736670;22;98929;-81
2023/04/11 04:18:06;;;;;;;192.98;12.43;;;;;;;13.63;72.25;101266.41;12738368;22;99010;-82
2023/04/11 04:23:12;;;;;;;19.15;4.28;;;;;;;13.54;73.04;101264.06;12735211;22;99016;-82
2023/04/11 04:28:21;;;;;;;18.70;4.50;;;;;;;13.59;72.71;101258.63;12739243;22;98946;-82
2023/04/11 04:33:24;;;;;;;53.20;6.55;;;;;;;13.68;72.54;101259.16;12738237;22;98900;-81
2023/04/11 04:38:29;;;;;;;61.10;6.55;;;;;;;13.52;73.43;101263.25;12737997;22;99047;-81
2023/04/11 04:43:34;;;;;;;7.15;3.15;;;;;;;13.65;72.59;101258.41;12738474;22;99429;-82
2023/04/11 04:48:37;;;;;;;4.55;2.42;;;;;;;13.48;72.71;101266.94;12739636;22;98652;-82
2023/04/11 04:53:41;;;;;;;19.80;4.53;;;;;;;13.80;72.11;101267.56;12748845;22;98574;-82
2023/04/11 04:58:46;;;;;;;47.65;5.80;;;;;;;13.71;72.50;101255.53;12800942;22;99354;-82
2023/04/11 05:03:57;;;;;;;26.27;5.05;;;;;;;13.80;72.53;101265.78;12799122;22;98952;-82
2023/04/11 05:09:04;;;;;;;15.32;4.53;;;;;;;13.90;72.67;101261.88;12800598;22;99091;-82
2023/04/11 05:14:09;;;;;;;36.60;5.50;;;;;;;13.88;72.81;101254.91;12800706;22;98995;-82
2023/04/11 05:19:12;;;;;;;;;;;;;;;13.95;73.01;101246.69;12801104;22;99236;-82
2023/04/11 05:24:16;;;;;;;18.42;4.70;;;;;;;13.76;73.18;101253.59;12800330;22;99339;-82
2023/04/11 05:29:20;;;;;;;12.57;4.57;;;;;;;13.87;73.23;101250.53;12800551;22;99177;-82
2023/04/11 05:34:24;;;;;;;13.60;5.15;;;;;;;14.05;72.54;101247.25;12797655;22;97542;-82
2023/04/11 05:39:27;;;;;;;10.35;5.25;;;;;;;14.26;71.97;101241.13;12801116;22;98932;-82
2023/04/11 05:44:32;;;;;;;28.73;6.05;;;;;;;14.32;71.68;101238.22;12800152;22;97783;-82
2023/04/11 05:49:35;;;;;;;21.83;6.10;;;;;;;14.31;71.93;101245.31;12800165;22;99650;-82
2023/04/11 05:54:38;;;;;;;18.08;6.30;;;;;;;14.19;72.15;101248.44;12798775;22;99391;-82
2023/04/11 05:59:43;;;;;;;29.60;6.28;;;;;;;14.09;72.69;101254.16;12800099;22;98044;-82
2023/04/11 06:04:46;;;;;;;18.23;6.63;;;;;;;14.13;72.77;101261.91;12799500;22;98703;-82
2023/04/11 06:09:50;;;;;;;20.27;6.53;;;;;;;14.11;73.03;101255.81;12799740;22;99217;-82
2023/04/11 06:14:54;;;;;;;15.15;6.15;;;;;;;14.10;72.84;101242.63;12800062;22;99041;-82
2023/04/11 06:19:58;;;;;;;17.25;7.07;;;;;;;14.01;73.47;101259.69;12800050;22;99087;-82
2023/04/11 06:25:01;;;;;;;16.00;6.18;;;;;;;14.08;73.32;101260.34;12799525;22;98987;-82
2023/04/11 06:30:09;;;;;;;13.20;6.78;;;;;;;14.06;73.26;101264.84;12800452;22;98930;-82
2023/04/11 06:35:12;;;;;;;13.32;6.80;;;;;;;14.09;73.54;101275.34;12798972;22;99409;-82
2023/04/11 06:40:16;;;;;;;12.35;7.53;;;;;;;14.17;73.48;101270.59;12801712;22;99002;-82
2023/04/11 06:45:20;;;;;;;11.13;6.68;;;;;;;14.19;73.39;101272.28;12800680;22;98846;-82
2023/04/11 06:50:24;;;;;;;17.08;7.43;;;;;;;14.10;73.86;101275.25;12802032;22;98949;-82
2023/04/11 06:55:27;;;;;;;10.98;6.97;;;;;;;14.27;73.43;101277.25;12800721;22;99182;-82
2023/04/11 07:00:31;;;;;;;8.68;6.53;;;;;;;14.23;73.41;101287.09;12801923;22;99263;-82
2023/04/11 07:05:35;;;;;;;8.85;5.90;;;;;;;14.38;72.90;101269.78;12802279;22;99116;-82
2023/04/11 07:10:41;;;;;;;7.75;5.70;;;;;;;14.46;72.99;101263.25;12801506;22;99524;-82
2023/04/11 07:15:46;;;;;;;7.15;4.78;;;;;;;14.65;72.43;101264.25;12802212;22;98972;-82
2023/04/11 07:20:51;;;;;;;7.30;5.25;;;;;;;14.42;73.22;101261.63;12802783;22;98913;-82
2023/04/11 07:25:54;;;;;;;9.43;5.22;;;;;;;14.32;73.68;101259.41;12801227;22;98862;-82
2023/04/11 07:30:59;;;;;;;7.30;5.13;;;;;;;14.53;73.14;101264.75;12801803;22;99638;-82
2023/04/11 07:36:03;;;;;;;7.20;5.57;;;;;;;14.59;72.71;101251.22;12800435;22;98819;-82
2023/04/11 07:41:08;;;;;;;7.65;5.32;;;;;;;14.59;72.88;101243.28;12802556;22;98879;-79
2023/04/11 07:46:13;;;;;;;10.23;5.82;;;;;;;14.66;72.35;101239.47;12801161;22;99244;-80
2023/04/11 07:51:17;;;;;;;7.05;5.35;;;;;;;14.82;71.78;101229.97;12800893;22;99197;-80
2023/04/11 07:56:20;;;;;;;7.50;5.07;;;;;;;15.01;71.80;101226.56;12801303;22;99489;-80
2023/04/11 08:01:26;;;;;;;7.35;4.75;;;;;;;14.97;71.86;101223.19;12799249;22;99325;-80
2023/04/11 08:06:30;;;;;;;6.72;5.03;;;;;;;15.10;71.92;101226.16;12802086;22;98550;-80
2023/04/11 08:11:33;;;;;;;8.90;6.07;;;;;;;15.16;71.97;101223.25;12803640;22;99417;-80
2023/04/11 08:16:38;;;;;;;7.68;6.90;;;;;;;15.08;72.46;101225.38;12802319;22;98960;-80
2023/04/11 08:21:42;;;;;;;7.82;7.03;;;;;;;15.08;72.63;101222.72;12802287;22;97918;-80
2023/04/11 08:26:45;;;;;;;6.03;4.40;;;;;;;15.27;72.23;101215.72;12799110;22;98967;-78
2023/04/11 08:31:50;;;;;;;7.25;4.68;;;;;;;15.44;71.50;101206.09;12801811;22;99366;-82
2023/04/11 08:36:53;;;;;;;9.30;5.88;;;;;;;15.65;71.01;101213.09;12798192;22;99174;-82
2023/04/11 08:41:56;;;;;;;6.30;5.13;;;;;;;15.76;71.23;101210.84;12800459;22;98650;-82
2023/04/11 08:47:01;;;;;;;7.82;5.65;;;;;;;15.90;70.48;101210.19;12801250;22;98602;-82
2023/04/11 08:52:04;;;;;;;6.90;4.68;;;;;;;15.87;70.83;101215.66;12800577;22;98861;-82
2023/04/11 08:57:07;;;;;;;6.28;4.57;;;;;;;15.96;70.96;101217.00;12800252;22;99208;-82
2023/04/11 09:02:12;;;;;;;8.05;6.88;;;;;;;16.12;70.36;101221.53;12801501;22;99149;-82
2023/04/11 09:07:16;;;;;;;;;;;;;;;16.11;70.84;101209.19;12801484;22;98874;-82
2023/04/11 09:12:28;;;;;;;12.20;8.48;;;;;;;16.60;69.60;101224.50;12799028;22;99088;-82
2023/04/11 09:17:41;;;;;;;16.83;10.90;;;;;;;16.93;68.65;101220.19;12799416;22;99251;-82
2023/04/11 09:22:44;;;;;;;14.43;10.63;;;;;;;16.78;68.90;101228.94;12799901;22;99080;-82
2023/04/11 09:27:48;;;;;;;11.25;8.02;;;;;;;17.33;67.66;101220.84;12799890;22;98880;-82
2023/04/11 09:32:54;;;;;;;9.85;6.93;;;;;;;17.47;67.17;101227.19;12800450;22;98995;-82
2023/04/11 09:37:59;;;;;;;10.43;6.78;;;;;;;17.60;67.42;101230.06;12800492;22;99205;-82
2023/04/11 09:43:04;;;;;;;11.65;6.45;;;;;;;17.94;66.73;101245.94;12799519;22;99083;-82
2023/04/11 09:48:08;;;;;;;12.32;7.25;;;;;;;17.99;66.04;101246.53;12798913;22;98227;-82
2023/04/11 09:53:12;;;;;;;9.70;6.15;;;;;;;17.91;66.27;101256.75;12800828;22;99256;-83
2023/04/11 09:58:15;;;;;;;7.72;5.35;;;;;;;18.36;65.69;101248.94;12801636;22;98923;-82
2023/04/11 10:03:22;;;;;;;8.65;5.07;;;;;;;21.57;58.32;101236.66;12799657;22;98931;-82
2023/04/11 10:08:31;;;;;;;8.00;4.13;;;;;;;23.64;53.82;101238.22;12798362;22;98968;-83
2023/04/11 10:13:41;;;;;;;6.80;3.50;;;;;;;25.22;49.79;101221.59;12801986;22;99373;-83
2023/04/11 10:19:20;;;;;;;5.57;3.00;;;;;;;25.78;46.73;101229.22;12802164;22;98923;-84
2023/04/11 10:24:25;;;;;;;3.45;2.28;;;;;;;27.15;44.45;101220.41;12802152;22;98800;-84
2023/04/11 10:29:48;;;;;;;2.92;1.40;;;;;;;27.49;39.59;101208.97;12801928;22;98866;-84
2023/04/11 10:35:29;;;;;;;1.98;1.13;;;;;;;28.46;36.80;101196.81;12801953;22;99151;-83
2023/04/11 10:40:34;;;;;;;1.42;1.02;;;;;;;27.23;38.00;101194.38;12802168;22;99051;-83
2023/04/11 10:45:39;;;;;;;2.03;1.17;;;;;;;27.96;36.33;101188.22;12803029;22;99238;-82
2023/04/11 10:50:44;;;;;;;2.35;1.27;;;;;;;28.05;36.32;101171.91;12801492;22;99077;-83
2023/04/11 10:55:50;;;;;;;1.73;0.95;;;;;;;27.12;36.54;101170.19;12801521;22;98953;-84
2023/04/11 11:01:14;;;;;;;2.75;1.25;;;;;;;26.81;36.06;101171.31;12801473;22;98579;-84
2023/04/11 11:06:38;;;;;;;2.50;1.48;;;;;;;27.51;35.97;101160.97;12801482;22;100793;-84
2023/04/11 11:12:07;;;;;;;2.85;1.27;;;;;;;27.74;34.26;101162.38;12801889;22;97797;-83
2023/04/11 11:17:12;;;;;;;2.40;1.15;;;;;;;28.24;34.36;101154.72;12802385;22;98837;-82
2023/04/11 11:22:16;;;;;;;2.88;1.40;;;;;;;28.11;33.73;101156.94;12801950;22;98965;-83
2023/04/11 11:27:21;;;;;;;2.15;1.40;;;;;;;27.33;34.11;101160.06;12801892;22;98847;-84
2023/04/11 11:32:27;;;;;;;4.60;1.70;;;;;;;27.27;33.61;101155.22;12802721;22;99802;-84
2023/04/11 11:37:31;;;;;;;3.25;1.90;;;;;;;26.89;35.28;101155.22;12802961;22;98863;-83
2023/04/11 11:42:36;;;;;;;3.35;2.13;;;;;;;26.81;35.11;101147.00;12801460;22;99164;-84
2023/04/11 11:47:43;;;;;;;3.28;1.85;;;;;;;26.46;36.08;101139.44;12802075;22;99229;-84
2023/04/11 11:52:47;;;;;;;5.60;1.90;;;;;;;25.73;36.96;101147.03;12800600;22;98103;-84
2023/04/11 11:57:52;;;;;;;5.70;2.35;;;;;;;25.49;37.51;101138.38;12800792;22;96638;-84
2023/04/11 12:02:58;;;;;;;3.92;2.45;;;;;;;25.65;37.29;101127.94;12800643;22;97806;-85
2023/04/11 12:08:03;;;;;;;4.30;2.30;;;;;;;25.31;37.11;101129.22;12801582;22;99270;-84
2023/04/11 12:13:16;;;;;;;3.42;2.30;;;;;;;25.73;37.68;101120.91;12800309;22;97880;-82
2023/04/11 12:18:23;;;;;;;4.28;2.35;;;;;;;26.01;36.91;101108.50;12801612;22;97811;-84
2023/04/11 12:23:27;;;;;;;3.95;2.28;;;;;;;25.58;37.49;101103.38;12801184;22;99329;-84
2023/04/11 12:28:31;;;;;;;3.20;2.27;;;;;;;25.24;37.72;101099.22;12803386;22;98546;-83
2023/04/11 12:33:34;;;;;;;3.90;2.30;;;;;;;24.36;38.34;101081.69;12801348;22;99190;-83
2023/04/11 12:38:38;;;;;;;3.23;2.13;;;;;;;24.84;38.30;101076.72;12800646;22;99016;-83
2023/04/11 12:43:42;;;;;;;5.67;2.97;;;;;;;24.97;37.20;101077.34;12799894;22;99256;-83
2023/04/11 12:48:45;;;;;;;4.93;2.65;;;;;;;24.45;38.68;101070.16;12801082;22;99065;-83
2023/04/11 12:53:51;;;;;;;3.28;2.22;;;;;;;24.96;38.17;101061.31;12800786;22;99435;-84
2023/04/11 12:58:57;;;;;;;6.43;3.33;;;;;;;24.72;38.58;101065.13;12801011;22;98972;-81
2023/04/11 13:04:10;;;;;;;4.82;2.22;;;;;;;24.55;38.97;101063.03;12801340;22;99078;-82
2023/04/11 13:09:19;;;;;;;5.28;2.45;;;;;;;24.68;38.88;101052.94;12800105;22;102183;-80
2023/04/11 13:14:29;;;;;;;6.15;2.22;;;;;;;24.58;39.46;101043.09;12788281;22;99170;-80
2023/04/11 13:19:38;;;;;;;5.97;2.40;;;;;;;24.51;40.04;101041.91;12801598;22;99067;-83
2023/04/11 13:24:42;;;;;;;7.60;2.13;;;;;;;24.56;41.17;101042.34;12799851;22;98288;-80
2023/04/11 13:29:49;;;;;;;7.47;1.97;;;;;;;24.09;42.39;101040.94;12800702;22;98991;-83
2023/04/11 13:34:59;;;;;;;5.38;2.08;;;;;;;24.21;42.69;101033.66;12800182;22;98934;-80
2023/04/11 13:40:11;;;;;;;4.45;2.30;;;;;;;24.01;42.41;101038.03;12800910;22;98882;-80
2023/04/11 13:45:20;;;;;;;4.72;1.85;;;;;;;23.56;42.94;101037.25;12799831;22;99051;-79
2023/04/11 13:50:24;;;;;;;4.30;1.80;;;;;;;23.73;43.72;101043.09;12787621;22;99034;-80
2023/04/11 13:55:30;;;;;;;4.90;1.90;;;;;;;23.11;43.70;101032.00;12799800;22;98964;-83
2023/04/11 14:00:35;;;;;;;4.20;2.00;;;;;;;23.37;44.06;101028.94;12799956;22;98698;-83
2023/04/11 14:05:39;;;;;;;4.95;1.80;;;;;;;23.25;44.52;101018.34;12799704;22;98960;-83
2023/04/11 14:10:42;;;;;;;4.13;1.90;;;;;;;23.54;44.60;101019.56;12799834;22;97921;-83
2023/04/11 14:15:47;;;;;;;6.57;1.80;;;;;;;23.00;44.71;100997.09;12799854;22;98663;-85
2023/04/11 14:21:07;;;;;;;3.80;1.60;;;;;;;23.51;44.14;101006.34;12800140;22;99226;-83
2023/04/11 14:26:10;;;;;;;4.82;1.88;;;;;;;23.42;43.86;100996.34;12798259;22;98973;-84
2023/04/11 14:31:15;;;;;;;3.58;1.60;;;;;;;23.16;44.74;100989.53;12799147;22;99031;-83
2023/04/11 14:36:19;;;;;;;6.63;1.63;;;;;;;23.10;44.72;100988.19;12799951;22;98924;-84
2023/04/11 14:41:22;;;;;;;4.87;1.77;;;;;;;23.47;44.24;100988.78;12799132;22;99317;-83
2023/04/11 14:46:27;;;;;;;4.23;1.63;;;;;;;23.39;44.07;100993.91;12798645;22;97524;-83
2023/04/11 14:51:30;;;;;;;6.70;2.20;;;;;;;22.90;45.15;100985.38;12798354;22;98914;-84
2023/04/11 14:56:33;;;;;;;5.77;1.87;;;;;;;23.22;44.69;100975.59;12800072;22;97920;-83
2023/04/11 15:01:39;;;;;;;4.10;1.60;;;;;;;22.70;46.08;100970.78;12802765;22;99033;-83
2023/04/11 15:06:42;;;;;;;6.55;2.10;;;;;;;22.92;45.66;100961.97;12803490;22;99254;-83
2023/04/11 15:11:46;;;;;;;5.07;1.70;;;;;;;22.89;45.73;100957.66;12802240;22;99037;-83
2023/04/11 15:16:50;;;;;;;6.97;2.07;;;;;;;22.82;45.68;100952.94;12800915;22;97743;-83
2023/04/11 15:21:53;;;;;;;4.65;1.80;;;;;;;22.38;44.86;100945.63;12801893;22;98904;-81
2023/04/11 15:26:57;;;;;;;5.35;2.03;;;;;;;22.63;45.62;100939.22;12801605;22;98938;-80
2023/04/11 15:32:03;;;;;;;5.28;2.13;;;;;;;22.47;46.37;100937.72;12801562;22;99007;-82
2023/04/11 15:37:10;;;;;;;6.13;1.83;;;;;;;22.80;45.48;100941.47;12802072;22;99134;-81
2023/04/11 15:42:13;;;;;;;4.85;2.08;;;;;;;22.88;45.12;100926.44;12801447;22;99370;-83
2023/04/11 15:47:17;;;;;;;4.75;1.60;;;;;;;22.37;45.39;100923.31;12802582;22;98921;-82
2023/04/11 15:52:21;;;;;;;9.32;2.47;;;;;;;22.22;46.54;100923.66;12801293;22;97881;-82
2023/04/11 15:57:26;;;;;;;5.88;1.98;;;;;;;21.94;47.01;100911.47;12801389;22;99127;-81
2023/04/11 16:02:30;;;;;;;6.00;1.80;;;;;;;21.96;46.64;100903.31;12801527;22;99048;-82
2023/04/11 16:07:34;;;;;;;5.85;2.10;;;;;;;21.26;47.53;100899.69;12799953;22;98958;-82
2023/04/11 16:12:37;;;;;;;5.75;2.10;;;;;;;21.42;48.44;100898.47;12801356;22;99337;-81
2023/04/11 16:17:41;;;;;;;6.53;2.10;;;;;;;21.20;47.90;100890.31;12801292;22;99293;-83
2023/04/11 16:22:46;;;;;;;5.75;2.40;;;;;;;21.33;48.25;100876.84;12801590;22;98942;-83
2023/04/11 16:27:50;;;;;;;6.35;2.70;;;;;;;20.93;48.42;100888.75;12801205;22;97054;-83
2023/04/11 16:32:55;;;;;;;6.57;2.17;;;;;;;20.49;49.70;100888.38;12801592;22;98884;-82
2023/04/11 16:37:58;;;;;;;4.07;2.10;;;;;;;20.66;49.12;100893.38;12801210;22;99178;-82
2023/04/11 16:43:01;;;;;;;6.53;2.72;;;;;;;20.67;49.43;100879.88;12802262;22;99081;-82
2023/04/11 16:48:08;;;;;;;4.40;1.75;;;;;;;20.23;50.10;100883.00;12801177;22;99098;-82
2023/04/11 16:53:11;;;;;;;6.78;2.00;;;;;;;20.41;49.72;100893.41;12800331;22;99442;-82
2023/04/11 16:58:14;;;;;;;5.90;1.95;;;;;;;20.21;50.39;100892.06;12798865;22;97844;-82
2023/04/11 17:03:20;;;;;;;8.77;3.13;;;;;;;20.16;51.36;100899.56;12801049;22;98712;-83
2023/04/11 17:08:25;;;;;;;7.65;2.15;;;;;;;20.17;51.44;100904.78;12788337;22;98938;-82
2023/04/11 17:13:28;;;;;;;;;;;;;;;19.57;52.32;100895.59;12800168;22;99151;-83
2023/04/11 17:18:32;;;;;;;7.40;2.42;;;;;;;19.62;51.84;100898.81;12800988;22;98891;-82
2023/04/11 17:23:36;;;;;;;;;;;;;;;19.55;52.08;100896.63;12800108;22;99011;-83
2023/04/11 17:28:58;;;;;;;7.50;2.08;;;;;;;19.73;51.87;100903.44;12801109;22;98995;-82
2023/04/11 17:34:03;;;;;;;6.85;1.83;;;;;;;19.55;51.96;100892.16;12801565;22;97961;-82
2023/04/11 17:39:06;;;;;;;;;;;;;;;19.51;52.15;100908.50;12800991;22;98987;-83
2023/04/11 17:44:09;;;;;;;7.95;1.83;;;;;;;19.29;52.50;100896.50;12800724;22;98964;-83
2023/04/11 17:49:15;;;;;;;10.93;2.33;;;;;;;19.41;52.24;100899.38;12799286;22;99192;-82
2023/04/11 17:54:18;;;;;;;10.45;2.28;;;;;;;19.47;52.10;100896.28;12799529;22;99436;-82
2023/04/11 17:59:22;;;;;;;5.55;2.15;;;;;;;19.45;52.19;100900.88;12796365;22;96639;-82
2023/04/11 18:04:27;;;;;;;;;;;;;;;18.98;53.59;100898.59;12800054;22;98929;-82
2023/04/11 18:09:31;;;;;;;5.43;1.90;;;;;;;18.96;53.56;100901.34;12800235;22;99140;-82
2023/04/11 18:14:34;;;;;;;6.22;2.17;;;;;;;18.96;53.55;100906.69;12799862;22;98843;-82
2023/04/11 18:19:38;;;;;;;7.25;2.45;;;;;;;18.95;53.96;100902.31;12796584;22;99305;-82
2023/04/11 18:24:41;;;;;;;7.22;2.70;;;;;;;18.96;53.99;100890.69;12800336;22;99009;-82
2023/04/11 18:29:45;;;;;;;5.93;2.30;;;;;;;18.82;53.77;100889.84;12799441;22;99219;-82
2023/04/11 18:34:50;;;;;;;6.53;2.00;;;;;;;18.71;54.00;100887.00;12801588;22;98965;-82
2023/04/11 18:39:54;;;;;;;7.00;2.22;;;;;;;18.63;54.01;100883.94;12800979;22;99006;-82
2023/04/11 18:44:58;;;;;;;8.77;2.50;;;;;;;18.36;54.65;100872.31;12801260;22;99035;-82
2023/04/11 18:50:04;;;;;;;8.52;2.60;;;;;;;18.21;55.04;100871.47;12801590;22;98085;-82
2023/04/11 18:55:08;;;;;;;9.02;2.47;;;;;;;17.85;56.09;100876.31;12801878;22;99282;-82
2023/04/11 19:00:14;;;;;;;11.02;3.25;;;;;;;17.66;56.21;100873.91;12802054;22;98888;-82
2023/04/11 19:05:23;;;;;;;9.18;2.67;;;;;;;17.52;56.69;100865.03;12801783;22;99053;-82
2023/04/11 19:10:27;;;;;;;6.32;2.42;;;;;;;17.55;57.43;100889.66;12802589;22;98875;-81
2023/04/11 19:15:30;;;;;;;11.23;3.00;;;;;;;17.45;57.25;100884.91;12802250;22;97846;-82
2023/04/11 19:20:35;;;;;;;8.98;2.90;;;;;;;17.40;57.06;100892.31;12801584;22;99137;-82
2023/04/11 19:25:41;;;;;;;9.77;2.25;;;;;;;17.31;58.17;100890.16;12801655;22;99001;-81
2023/04/11 19:30:44;;;;;;;13.17;2.50;;;;;;;17.25;57.79;100902.00;12800620;22;99397;-81
2023/04/11 19:35:49;;;;;;;9.10;2.55;;;;;;;17.21;58.40;100907.59;12801775;22;98686;-81
2023/04/11 19:40:52;;;;;;;9.27;2.88;;;;;;;17.01;58.60;100914.91;12801206;22;99114;-82
2023/04/11 19:45:55;;;;;;;11.13;3.10;;;;;;;17.04;58.97;100913.84;12800387;22;99005;-81
2023/04/11 19:51:00;;;;;;;8.52;2.60;;;;;;;17.10;58.81;100923.28;12801513;22;99019;-82
2023/04/11 19:56:06;;;;;;;9.48;2.67;;;;;;;17.07;58.74;100929.63;12801093;22;99178;-82
2023/04/11 20:01:09;;;;;;;9.13;2.72;;;;;;;17.06;58.82;100925.25;12801545;22;99294;-81
2023/04/11 20:06:14;;;;;;;9.45;3.13;;;;;;;17.03;58.65;100931.59;12802283;22;99301;-81
2023/04/11 20:11:19;;;;;;;10.93;3.30;;;;;;;16.97;59.03;100926.63;12801078;22;99149;-81
2023/04/11 20:16:23;;;;;;;9.98;2.92;;;;;;;17.02;58.82;100932.53;12801095;22;98840;-81
2023/04/11 20:21:28;;;;;;;10.63;2.83;;;;;;;16.98;59.22;100935.47;12799995;22;99036;-81
2023/04/11 20:26:31;;;;;;;8.02;2.75;;;;;;;17.08;58.91;100915.41;12801245;22;99622;-81
2023/04/11 20:31:35;;;;;;;8.00;2.92;;;;;;;17.33;58.31;100929.03;12800953;22;98950;-81
2023/04/11 20:36:39;;;;;;;8.07;2.88;;;;;;;17.27;59.02;100926.72;12801159;22;99472;-81
2023/04/11 20:41:42;;;;;;;11.80;3.63;;;;;;;17.14;59.34;100930.16;12800927;22;99168;-81
2023/04/11 20:46:46;;;;;;;14.18;6.28;;;;;;;17.18;59.30;100935.22;12800925;22;99442;-82
2023/04/11 20:51:52;;;;;;;10.20;4.70;;;;;;;17.29;58.99;100938.13;12801042;22;99527;-81
2023/04/11 20:56:55;;;;;;;10.60;4.40;;;;;;;17.33;59.11;100931.69;12801457;22;98988;-82
2023/04/11 21:01:58;;;;;;;12.90;4.43;;;;;;;17.21;59.47;100924.41;12800750;22;98970;-81
2023/04/11 21:07:03;;;;;;;13.68;4.75;;;;;;;17.02;60.45;100921.03;12800800;22;99075;-81
2023/04/11 21:12:07;;;;;;;14.15;5.60;;;;;;;16.85;60.91;100915.81;12799615;22;99162;-81
2023/04/11 21:17:10;;;;;;;8.93;4.53;;;;;;;16.87;61.15;100920.09;12800645;22;97933;-81
2023/04/11 21:22:14;;;;;;;13.13;5.00;;;;;;;16.89;60.50;100922.69;12800371;22;98958;-81
2023/04/11 21:27:17;;;;;;;9.00;2.70;;;;;;;16.84;61.11;100932.72;12800835;22;99033;-82
2023/04/11 21:32:21;;;;;;;11.70;4.45;;;;;;;16.90;61.50;100921.72;12800265;22;98976;-81
2023/04/11 21:37:25;;;;;;;9.38;4.20;;;;;;;16.90;61.75;100919.94;12800745;22;98969;-81
2023/04/11 21:42:28;;;;;;;7.55;3.50;;;;;;;16.99;61.18;100914.13;12800623;22;99136;-81
2023/04/11 21:47:32;;;;;;;12.50;4.20;;;;;;;16.62;62.15;100914.38;12801315;22;98970;-81
2023/04/11 21:52:36;;;;;;;8.98;3.17;;;;;;;16.48;63.10;100918.75;12799547;22;99201;-82
2023/04/11 21:57:39;;;;;;;13.52;3.70;;;;;;;16.64;63.04;100909.84;12800363;22;99183;-81
2023/04/11 22:02:42;;;;;;;9.65;3.22;;;;;;;16.85;62.14;100905.16;12798649;22;98957;-81
2023/04/11 22:07:50;;;;;;;7.85;3.42;;;;;;;16.71;62.52;100902.41;12800799;22;97939;-81
2023/04/11 22:12:53;;;;;;;6.90;3.08;;;;;;;16.66;62.80;100897.34;12802641;22;99112;-81
2023/04/11 22:17:56;;;;;;;9.07;3.40;;;;;;;16.49;62.95;100902.72;12802602;22;99041;-81
2023/04/11 22:23:01;;;;;;;9.15;3.67;;;;;;;16.25;63.46;100897.81;12801670;22;98984;-81
2023/04/11 22:28:04;;;;;;;8.63;3.35;;;;;;;16.27;63.66;100893.28;12799593;22;99075;-81
2023/04/11 22:33:07;;;;;;;9.77;3.65;;;;;;;16.18;63.53;100894.63;12802218;22;99053;-81
2023/04/11 22:38:12;;;;;;;9.55;3.28;;;;;;;16.17;63.45;100903.50;12803198;22;98933;-81
2023/04/11 22:43:16;;;;;;;7.18;3.03;;;;;;;16.05;63.80;100898.00;12801972;22;99492;-82
2023/04/11 22:48:19;;;;;;;9.65;3.70;;;;;;;15.82;64.82;100902.66;12801048;22;99578;-81
2023/04/11 22:53:24;;;;;;;7.28;3.53;;;;;;;15.55;65.98;100903.19;12800028;22;99324;-81
2023/04/11 22:58:27;;;;;;;10.68;3.60;;;;;;;15.89;64.84;100887.31;12802712;22;99188;-81
2023/04/11 23:03:30;;;;;;;8.40;3.38;;;;;;;15.84;65.33;100890.19;12801772;22;98978;-81
2023/04/11 23:08:35;;;;;;;8.32;3.38;;;;;;;15.98;65.35;100870.88;12801845;22;99016;-81
2023/04/11 23:13:38;;;;;;;11.80;3.38;;;;;;;16.09;64.73;100883.59;12802646;22;99164;-81
2023/04/11 23:18:41;;;;;;;8.90;3.25;;;;;;;16.14;65.01;100876.25;12801741;22;99419;-81
2023/04/11 23:23:45;;;;;;;10.07;3.40;;;;;;;16.09;64.85;100878.28;12794001;22;98039;-81